Time;durP1;ratioP1;P1;durP2;ratioP2;P2;SDS_P1;SDS_P2;PMS_P1;PMS_P2;Temp;Humidity;BMP_temperature;BMP_pressure;BME280_temperature;BME280_humidity;BME280_pressure;Samples;Min_cycle;Max_cycle;Signal;HPM_P1;HPM_P2
2022/03/26 11:08:12;;;;;;;16.35;5.53;;;;;;;18.86;38.90;102883.69;5089904;27;20371;-71
2022/03/26 11:10:40;;;;;;;;;;;;;;;19.61;38.29;102875.63;5088386;28;20070;-72
2022/03/26 11:13:09;;;;;;;15.55;4.90;;;;;;;19.68;37.12;102874.13;5093310;28;19908;-76
2022/03/26 11:15:41;;;;;;;9.27;4.30;;;;;;;19.45;36.08;102877.88;5089799;28;20059;-75
2022/03/26 11:18:19;;;;;;;8.85;4.28;;;;;;;19.61;36.38;102870.28;5074825;28;20048;-76
2022/03/26 11:21:12;;;;;;;10.15;3.75;;;;;;;19.58;36.88;102865.19;5063930;28;20041;-76
2022/03/26 11:23:54;;;;;;;7.07;3.40;;;;;;;20.09;35.04;102860.84;5026167;28;20044;-75
2022/03/26 11:26:27;;;;;;;8.27;3.60;;;;;;;19.84;35.19;102858.53;5068471;28;20060;-76
2022/03/26 11:29:08;;;;;;;7.68;3.47;;;;;;;19.57;36.09;102862.69;5070027;28;20059;-75
2022/03/26 11:31:42;;;;;;;5.50;3.00;;;;;;;19.83;37.09;102862.19;5067426;28;20041;-76
2022/03/26 11:34:10;;;;;;;8.15;3.50;;;;;;;19.70;36.40;102863.31;5070547;28;20095;-74
2022/03/26 11:36:37;;;;;;;7.43;4.03;;;;;;;19.51;37.88;102860.53;5076153;28;20105;-75
2022/03/26 11:39:13;;;;;;;9.70;3.50;;;;;;;19.54;37.19;102858.44;5088095;28;20044;-75
2022/03/26 11:41:41;;;;;;;7.80;3.83;;;;;;;19.60;37.07;102852.59;5085737;28;20043;-75
2022/03/26 11:44:08;;;;;;;7.10;4.00;;;;;;;20.35;37.45;102848.78;5088251;28;20040;-75
2022/03/26 11:52:14;;;;;;;7.75;4.00;;;;;;;20.92;37.20;102841.00;5068090;28;20052;-75
2022/03/26 11:54:50;;;;;;;7.07;3.60;;;;;;;20.64;37.23;102844.41;5067101;28;20139;-75
2022/03/26 11:57:18;;;;;;;8.38;3.38;;;;;;;20.49;36.25;102835.06;5068226;28;20041;-75
2022/03/26 11:59:45;;;;;;;9.00;4.03;;;;;;;20.47;37.40;102837.03;5073128;28;20032;-75
2022/03/26 12:02:22;;;;;;;9.07;4.28;;;;;;;20.91;38.34;102834.84;5076128;28;20040;-74
2022/03/26 12:04:52;;;;;;;8.55;4.95;;;;;;;21.07;36.91;102837.81;5061989;28;20048;-75
2022/03/26 12:07:19;;;;;;;9.75;4.57;;;;;;;20.48;37.02;102831.56;5074167;28;20071;-74
2022/03/26 12:09:46;;;;;;;9.02;4.20;;;;;;;20.29;37.55;102835.97;5066695;28;20391;-74
2022/03/26 12:12:16;;;;;;;7.68;4.13;;;;;;;19.98;39.41;102834.25;5074521;28;20414;-75
2022/03/26 12:15:20;;;;;;;11.38;4.07;;;;;;;20.93;39.20;102829.34;5070950;28;20072;-74
2022/03/26 12:17:47;;;;;;;7.65;3.85;;;;;;;21.09;36.02;102826.00;5069625;28;20033;-75
2022/03/26 12:20:27;;;;;;;7.38;4.13;;;;;;;20.21;38.29;102831.28;5057955;28;21014;-75
2022/03/26 12:23:06;;;;;;;11.43;4.60;;;;;;;20.45;38.06;102822.97;5052287;28;20129;-74
2022/03/26 12:25:38;;;;;;;9.10;4.50;;;;;;;20.79;36.70;102817.22;5061058;28;20131;-76
2022/03/26 12:28:07;;;;;;;9.30;4.47;;;;;;;20.25;37.48;102816.69;5058753;28;20136;-74
2022/03/26 12:30:33;;;;;;;8.75;4.82;;;;;;;20.12;38.17;102803.69;5060926;28;20040;-74
2022/03/26 12:33:03;;;;;;;7.47;4.60;;;;;;;20.70;38.27;102806.47;5060859;28;20072;-75
2022/03/26 12:35:30;;;;;;;9.27;4.80;;;;;;;20.57;37.18;102805.84;5058813;28;20123;-75
2022/03/26 12:37:58;;;;;;;11.98;5.25;;;;;;;20.81;36.39;102803.69;5057060;28;20044;-74
2022/03/26 12:40:26;;;;;;;11.13;5.05;;;;;;;21.05;36.61;102797.84;5061889;28;20572;-74
2022/03/26 12:42:54;;;;;;;11.30;5.28;;;;;;;20.45;37.29;102798.94;5059162;28;20037;-75
2022/03/26 12:45:23;;;;;;;8.55;4.15;;;;;;;20.72;37.03;102794.66;5056990;28;20052;-76
2022/03/26 12:47:50;;;;;;;16.08;5.20;;;;;;;20.94;36.09;102793.63;5065947;28;20067;-76
2022/03/26 12:50:21;;;;;;;10.15;5.43;;;;;;;20.02;37.54;102787.63;5069829;28;20044;-75
2022/03/26 12:52:48;;;;;;;9.20;4.70;;;;;;;20.75;37.02;102789.06;5067416;28;20063;-74
2022/03/26 12:55:16;;;;;;;13.98;4.30;;;;;;;21.19;36.19;102789.44;5062680;28;20410;-76
2022/03/26 13:00:30;;;;;;;10.55;4.70;;;;;;;20.18;37.12;102786.19;5054375;28;20048;-74
2022/03/26 13:03:04;;;;;;;8.15;4.45;;;;;;;20.69;36.76;102791.41;5048874;28;20120;-76
2022/03/26 13:05:32;;;;;;;9.82;5.18;;;;;;;20.82;36.13;102786.69;5060758;28;20076;-75
2022/03/26 13:07:59;;;;;;;5.07;3.70;;;;;;;20.46;37.60;102765.91;5063918;28;20060;-74
2022/03/26 13:10:33;;;;;;;8.65;4.10;;;;;;;20.26;36.35;102764.16;5053131;28;20064;-75
2022/03/26 13:13:01;;;;;;;10.10;4.15;;;;;;;20.52;37.11;102768.03;5053155;28;20506;-76
2022/03/26 13:15:27;;;;;;;6.72;3.80;;;;;;;20.70;37.52;102769.91;5051800;28;20044;-75
2022/03/26 13:18:01;;;;;;;6.57;3.17;;;;;;;20.33;38.10;102765.28;5061203;28;20048;-75
2022/03/26 13:20:29;;;;;;;7.00;3.80;;;;;;;20.24;36.51;102764.28;5063067;28;20487;-74
2022/03/26 13:23:01;;;;;;;4.68;3.30;;;;;;;20.76;35.93;102763.16;5057538;28;20036;-75
2022/03/26 13:25:32;;;;;;;10.13;3.88;;;;;;;21.15;36.77;102749.75;5060526;28;20186;-75
2022/03/26 13:28:13;;;;;;;7.32;3.83;;;;;;;21.13;36.70;102757.88;5058893;28;20045;-75
2022/03/26 13:30:40;;;;;;;5.25;3.72;;;;;;;21.47;34.91;102745.78;5059344;28;20151;-74
2022/03/26 13:33:12;;;;;;;5.82;3.50;;;;;;;21.51;35.13;102747.19;5065949;28;20102;-80
2022/03/26 13:35:40;;;;;;;9.27;3.40;;;;;;;20.56;35.69;102737.41;5068018;28;20040;-74
2022/03/26 13:38:12;;;;;;;6.78;2.95;;;;;;;20.56;36.97;102750.78;5076590;28;20044;-74
2022/03/26 13:40:39;;;;;;;7.10;3.50;;;;;;;20.86;36.60;102745.38;5075519;28;20043;-75
2022/03/26 13:43:09;;;;;;;7.45;3.72;;;;;;;20.57;36.73;102749.75;5075523;28;20049;-75
2022/03/26 13:45:36;;;;;;;6.22;3.22;;;;;;;20.89;34.95;102747.78;5058434;28;20491;-74
2022/03/26 13:48:02;;;;;;;9.73;4.13;;;;;;;20.67;37.21;102742.63;5058906;28;20080;-74
2022/03/26 13:50:33;;;;;;;3.80;2.20;;;;;;;20.71;37.07;102741.38;5065670;28;20041;-74
2022/03/26 13:53:00;;;;;;;7.25;2.90;;;;;;;20.37;36.86;102735.53;5102935;28;20048;-77
2022/03/26 13:55:28;;;;;;;5.25;3.10;;;;;;;20.45;35.58;102742.84;5084018;28;20051;-74
2022/03/26 13:57:56;;;;;;;7.45;3.53;;;;;;;20.51;36.20;102740.50;5062403;28;20043;-75
2022/03/26 14:00:24;;;;;;;5.75;3.67;;;;;;;20.03;38.43;102741.28;5056381;28;20040;-75
2022/03/26 14:02:52;;;;;;;6.75;3.53;;;;;;;20.53;37.34;102740.34;5059684;28;20527;-74
2022/03/26 14:05:25;;;;;;;8.20;3.65;;;;;;;21.21;36.57;102723.31;5055101;28;20120;-74
2022/03/26 14:07:54;;;;;;;4.20;2.65;;;;;;;20.63;36.00;102730.53;5052045;28;20053;-73
2022/03/26 14:10:31;;;;;;;5.97;3.03;;;;;;;20.00;36.88;102727.38;5058033;28;20438;-75
2022/03/26 14:12:59;;;;;;;2.80;1.90;;;;;;;20.58;36.16;102724.75;5054612;28;20052;-74
2022/03/26 14:15:26;;;;;;;4.47;1.88;;;;;;;20.61;35.04;102719.16;5049980;28;20041;-74
2022/03/26 14:17:53;;;;;;;4.97;2.42;;;;;;;20.81;35.31;102719.06;5054784;28;20037;-74
2022/03/26 14:20:20;;;;;;;4.32;2.58;;;;;;;20.93;34.55;102715.25;5058569;28;20072;-74
2022/03/26 14:22:47;;;;;;;16.63;3.95;;;;;;;20.46;36.42;102717.84;5057096;28;20934;-75
2022/03/26 14:25:15;;;;;;;6.35;3.45;;;;;;;19.87;37.89;102724.91;5059247;28;20333;-74
2022/03/26 14:27:42;;;;;;;5.35;2.45;;;;;;;19.79;36.80;102716.72;5058746;28;20055;-74
2022/03/26 14:30:09;;;;;;;4.65;3.03;;;;;;;20.06;36.46;102709.00;5052836;28;20057;-74
2022/03/26 14:32:36;;;;;;;6.63;2.83;;;;;;;19.92;35.79;102714.66;5058581;28;20048;-74
2022/03/26 14:35:02;;;;;;;9.40;3.30;;;;;;;19.91;37.61;102712.97;5055661;28;20049;-73
2022/03/26 14:37:29;;;;;;;5.13;2.50;;;;;;;20.21;37.19;102699.66;5052137;28;20044;-74
2022/03/26 14:39:56;;;;;;;4.75;2.92;;;;;;;19.89;36.83;102704.28;5056730;28;20048;-74
2022/03/26 14:42:24;;;;;;;8.50;2.78;;;;;;;19.84;35.90;102709.16;5048977;28;20075;-74
2022/03/26 14:44:51;;;;;;;6.75;3.00;;;;;;;19.52;36.19;102703.06;5045037;28;20393;-73
2022/03/26 14:47:17;;;;;;;5.18;2.95;;;;;;;19.89;36.67;102701.59;5060189;28;20036;-73
2022/03/26 14:49:44;;;;;;;5.65;3.47;;;;;;;19.73;37.82;102706.59;5051809;28;20068;-74
2022/03/26 14:52:10;;;;;;;9.45;3.15;;;;;;;19.56;37.42;102699.19;5053512;28;20052;-74
2022/03/26 14:54:37;;;;;;;6.65;2.72;;;;;;;19.50;37.23;102705.03;5048052;28;20053;-75
2022/03/26 14:57:07;;;;;;;4.72;2.65;;;;;;;19.68;36.71;102697.28;5049735;28;20048;-75
2022/03/26 14:59:35;;;;;;;6.18;2.85;;;;;;;19.49;39.09;102697.16;5061583;28;20054;-75
2022/03/26 15:02:01;;;;;;;5.47;3.53;;;;;;;19.38;39.03;102695.41;5053224;28;20052;-75
2022/03/26 15:04:28;;;;;;;6.10;3.78;;;;;;;19.48;39.57;102693.66;5063646;28;20100;-76
2022/03/26 15:06:54;;;;;;;5.47;3.28;;;;;;;19.43;39.33;102695.88;5055070;28;20148;-76
2022/03/26 15:09:21;;;;;;;8.15;3.13;;;;;;;19.66;38.92;102689.41;5049454;28;20049;-75
2022/03/26 15:11:48;;;;;;;7.28;3.00;;;;;;;19.76;38.30;102690.28;5050503;28;20036;-77
2022/03/26 15:14:14;;;;;;;5.32;3.25;;;;;;;19.97;37.82;102685.81;5055683;28;20047;-75
2022/03/26 15:16:42;;;;;;;6.28;3.92;;;;;;;19.85;38.07;102689.50;5044573;28;20043;-77
2022/03/26 15:19:09;;;;;;;6.72;3.67;;;;;;;19.33;37.75;102692.28;5048216;28;20064;-75
2022/03/26 15:21:36;;;;;;;7.72;3.58;;;;;;;19.25;37.37;102693.91;5052229;28;20077;-75
2022/03/26 15:24:02;;;;;;;6.82;3.67;;;;;;;19.30;37.54;102690.88;5050360;28;20102;-75
2022/03/26 15:26:29;;;;;;;6.63;4.05;;;;;;;18.97;37.98;102693.66;5055810;28;20106;-75
2022/03/26 15:28:56;;;;;;;6.95;3.53;;;;;;;18.73;38.68;102695.69;5059261;28;20143;-75
2022/03/26 15:31:22;;;;;;;9.82;4.35;;;;;;;18.84;39.09;102682.31;5063215;28;20048;-75
2022/03/26 15:33:51;;;;;;;14.30;4.43;;;;;;;18.88;37.65;102679.28;5062850;28;20111;-76
2022/03/26 15:36:18;;;;;;;9.57;4.10;;;;;;;18.93;37.75;102682.44;5067072;28;20037;-76
2022/03/26 15:38:45;;;;;;;8.15;4.63;;;;;;;18.96;37.58;102681.31;5070788;28;20112;-75
2022/03/26 15:41:12;;;;;;;7.65;4.13;;;;;;;18.82;38.39;102679.81;5059040;28;20122;-75
2022/03/26 15:43:38;;;;;;;5.90;3.83;;;;;;;18.77;39.08;102683.81;5060621;28;20048;-76
2022/03/26 15:46:05;;;;;;;8.63;4.43;;;;;;;18.89;37.94;102672.16;5059000;28;20127;-76
2022/03/26 15:48:32;;;;;;;9.02;4.45;;;;;;;18.67;38.56;102674.91;5046910;28;20068;-76
2022/03/26 15:51:00;;;;;;;6.93;4.03;;;;;;;18.61;39.30;102672.72;5054111;28;20452;-75
2022/03/26 15:53:27;;;;;;;7.43;4.20;;;;;;;18.71;38.71;102673.69;5049149;28;20032;-74
2022/03/26 15:55:53;;;;;;;6.57;3.70;;;;;;;18.75;38.73;102683.94;5059562;28;20197;-74
2022/03/26 15:58:20;;;;;;;7.03;3.95;;;;;;;18.61;37.87;102670.06;5051853;28;20131;-75
2022/03/26 16:00:49;;;;;;;9.00;4.07;;;;;;;18.53;37.28;102672.53;5054041;28;20098;-77
2022/03/26 16:03:17;;;;;;;8.23;4.38;;;;;;;18.32;38.31;102668.97;5064773;28;20098;-76
2022/03/26 16:05:44;;;;;;;7.32;4.07;;;;;;;18.27;38.75;102665.81;5052282;28;20044;-74
2022/03/26 16:08:12;;;;;;;9.65;3.25;;;;;;;18.47;39.69;102670.38;5051244;28;20062;-76
2022/03/26 16:10:39;;;;;;;5.97;3.17;;;;;;;18.62;38.46;102682.41;5056363;28;20051;-74
2022/03/26 16:13:06;;;;;;;6.82;3.15;;;;;;;18.54;38.05;102676.88;5052167;28;20351;-75
2022/03/26 16:15:32;;;;;;;5.80;3.45;;;;;;;18.28;37.99;102683.47;5052466;28;20044;-72
2022/03/26 16:18:00;;;;;;;13.38;3.40;;;;;;;18.21;37.79;102684.09;5061709;28;20102;-68
2022/03/26 16:20:26;;;;;;;5.82;3.20;;;;;;;18.17;37.47;102678.16;5054465;28;20135;-68
2022/03/26 16:22:53;;;;;;;9.13;2.97;;;;;;;18.28;37.71;102677.31;5070151;28;20049;-70
2022/03/26 16:25:26;;;;;;;4.28;2.50;;;;;;;18.15;38.16;102679.22;5050414;28;20052;-70
2022/03/26 16:27:54;;;;;;;16.00;3.13;;;;;;;18.03;38.95;102681.03;5052930;28;20048;-69
2022/03/26 16:30:23;;;;;;;8.00;3.20;;;;;;;17.97;39.37;102672.72;5061678;28;20056;-72
2022/03/26 16:32:49;;;;;;;11.35;4.18;;;;;;;17.93;40.13;102677.41;5069694;28;20040;-69
2022/03/26 16:35:16;;;;;;;8.10;3.45;;;;;;;17.83;39.80;102675.59;5057840;28;20706;-71
2022/03/26 16:37:43;;;;;;;5.50;3.72;;;;;;;17.72;38.69;102667.66;5056807;28;20040;-73
2022/03/26 16:40:11;;;;;;;7.95;3.95;;;;;;;17.68;39.29;102676.81;5057373;28;20080;-72
2022/03/26 16:42:39;;;;;;;7.95;4.43;;;;;;;17.58;38.99;102669.69;5055401;28;20059;-73
2022/03/26 16:45:07;;;;;;;7.03;4.60;;;;;;;17.54;40.01;102673.53;5059004;28;20127;-75
2022/03/26 16:47:34;;;;;;;8.00;4.47;;;;;;;17.50;40.17;102670.28;5056591;28;20040;-75
2022/03/26 16:50:00;;;;;;;9.10;4.50;;;;;;;17.40;40.51;102671.09;5053703;28;20066;-74
2022/03/26 16:52:27;;;;;;;12.95;4.75;;;;;;;17.31;40.81;102669.16;5058052;28;20038;-76
2022/03/26 16:54:53;;;;;;;8.32;4.70;;;;;;;17.18;41.08;102671.03;5059321;28;20212;-74
2022/03/26 16:57:20;;;;;;;9.27;4.35;;;;;;;17.09;41.49;102666.41;5049864;28;20512;-75
2022/03/26 16:59:48;;;;;;;9.38;5.18;;;;;;;17.00;41.97;102673.25;5054233;28;20047;-75
2022/03/26 17:02:15;;;;;;;11.45;5.35;;;;;;;16.93;41.75;102665.88;5054424;28;20068;-74
2022/03/26 17:04:42;;;;;;;8.35;4.65;;;;;;;16.93;42.10;102672.03;5058223;28;20037;-75
2022/03/26 17:07:08;;;;;;;12.38;5.57;;;;;;;16.79;42.66;102668.69;5056658;28;20140;-75
2022/03/26 17:09:36;;;;;;;12.15;6.20;;;;;;;16.64;43.30;102680.47;5056228;28;20041;-75
2022/03/26 17:12:05;;;;;;;14.02;5.85;;;;;;;16.56;44.14;102682.00;5056038;28;20055;-76
2022/03/26 17:14:31;;;;;;;8.40;4.78;;;;;;;16.48;44.51;102679.06;5060939;28;20090;-74
2022/03/26 17:16:59;;;;;;;10.07;5.22;;;;;;;16.41;44.65;102678.66;5067259;28;20127;-78
2022/03/26 17:19:26;;;;;;;8.70;5.40;;;;;;;16.38;44.61;102681.50;5070059;28;20066;-74
2022/03/26 17:21:53;;;;;;;12.43;5.45;;;;;;;16.27;44.33;102681.44;5062674;28;20041;-73
2022/03/26 17:24:20;;;;;;;13.80;5.90;;;;;;;16.23;45.29;102679.94;5060315;28;20044;-74
2022/03/26 17:26:47;;;;;;;15.75;5.93;;;;;;;16.12;46.12;102677.25;5053502;28;20043;-74
2022/03/26 17:29:13;;;;;;;10.63;5.20;;;;;;;16.06;45.72;102682.94;5053916;28;20048;-73
2022/03/26 17:31:40;;;;;;;9.35;5.13;;;;;;;15.95;46.25;102683.84;5058076;28;20050;-75
2022/03/26 17:34:08;;;;;;;10.13;5.13;;;;;;;15.83;46.19;102684.69;5112834;28;20086;-75
2022/03/26 17:36:36;;;;;;;8.60;5.10;;;;;;;15.86;46.48;102679.19;5071872;28;20039;-74
2022/03/26 17:39:03;;;;;;;9.63;5.65;;;;;;;15.66;47.44;102688.53;5067484;28;20041;-77
2022/03/26 17:41:30;;;;;;;9.65;5.07;;;;;;;15.50;47.05;102687.03;5064053;28;20056;-74
2022/03/26 17:43:56;;;;;;;10.00;5.13;;;;;;;15.43;47.56;102694.53;5058860;28;20151;-74
2022/03/26 17:46:23;;;;;;;14.30;5.20;;;;;;;15.28;48.61;102682.34;5059919;28;20147;-76
2022/03/26 17:48:49;;;;;;;8.88;4.90;;;;;;;15.10;49.14;102685.38;5053724;28;20059;-73
2022/03/26 17:51:18;;;;;;;16.58;5.22;;;;;;;14.98;49.31;102686.19;5061188;28;20041;-74
2022/03/26 17:53:46;;;;;;;10.35;5.90;;;;;;;14.93;50.00;102693.59;5056890;28;20072;-75
2022/03/26 17:56:17;;;;;;;8.27;5.13;;;;;;;14.77;49.82;102698.19;5058294;28;20037;-74
2022/03/26 17:58:43;;;;;;;12.57;5.40;;;;;;;14.53;50.40;102691.00;5055138;28;20044;-74
2022/03/26 18:01:10;;;;;;;9.63;5.53;;;;;;;14.33;51.64;102695.88;5056630;28;20044;-74
2022/03/26 18:03:37;;;;;;;12.63;5.57;;;;;;;14.25;51.57;102700.78;5057863;28;20561;-73
2022/03/26 18:06:03;;;;;;;10.45;5.70;;;;;;;14.26;52.03;102698.06;5058577;28;20075;-72
2022/03/26 18:08:31;;;;;;;12.30;6.22;;;;;;;14.21;52.95;102694.03;5053103;28;20040;-72
2022/03/26 18:10:58;;;;;;;10.25;5.80;;;;;;;14.18;52.50;102704.78;5058991;28;20157;-71
2022/03/26 18:13:26;;;;;;;11.73;5.35;;;;;;;14.04;52.65;102697.69;5052557;28;20437;-74
2022/03/26 18:15:52;;;;;;;12.85;6.10;;;;;;;13.91;53.43;102701.22;5055203;28;20053;-73
2022/03/26 18:18:19;;;;;;;9.07;5.07;;;;;;;13.89;52.83;102697.81;5055901;28;20040;-75
2022/03/26 18:20:46;;;;;;;15.57;5.93;;;;;;;13.85;53.43;102706.84;5057823;28;20040;-75
2022/03/26 18:23:12;;;;;;;9.77;6.22;;;;;;;13.77;53.14;102701.19;5056311;28;20050;-75
2022/03/26 18:25:40;;;;;;;9.70;5.43;;;;;;;13.70;53.52;102698.09;5057123;28;20056;-74
2022/03/26 18:28:08;;;;;;;13.18;5.50;;;;;;;13.64;54.02;102703.72;5055730;28;20059;-75
2022/03/26 18:30:34;;;;;;;8.85;4.90;;;;;;;13.60;53.94;102706.66;5059269;28;20041;-75
2022/03/26 18:33:01;;;;;;;12.15;4.70;;;;;;;13.60;54.07;102711.94;5058768;28;20041;-74
2022/03/26 18:35:28;;;;;;;8.55;5.03;;;;;;;13.59;54.09;102709.38;5059290;28;20525;-76
2022/03/26 18:37:54;;;;;;;10.55;5.63;;;;;;;13.56;54.13;102718.34;5058995;28;20064;-74
2022/03/26 18:40:21;;;;;;;7.53;4.75;;;;;;;13.51;54.32;102720.41;5048196;28;20362;-74
2022/03/26 18:42:49;;;;;;;9.73;4.60;;;;;;;13.42;54.49;102717.47;5056249;28;20040;-75
2022/03/26 18:45:17;;;;;;;9.85;5.47;;;;;;;13.36;55.00;102728.41;5056587;28;20036;-74
2022/03/26 18:47:43;;;;;;;11.30;5.05;;;;;;;13.34;55.55;102728.47;5056801;28;20090;-75
2022/03/26 18:50:11;;;;;;;10.15;5.00;;;;;;;13.22;55.89;102726.56;5051885;28;20060;-76
2022/03/26 18:52:38;;;;;;;9.45;5.10;;;;;;;13.17;56.38;102728.63;5059175;28;20068;-75
2022/03/26 18:55:06;;;;;;;10.80;5.75;;;;;;;13.11;59.25;102733.41;5056236;28;20044;-75
2022/03/26 18:57:32;;;;;;;10.60;5.30;;;;;;;13.09;61.64;102745.84;5054121;28;20086;-75
2022/03/26 19:00:01;;;;;;;13.00;5.00;;;;;;;12.96;60.88;102737.78;5056336;28;20044;-74
2022/03/26 19:02:29;;;;;;;7.75;4.68;;;;;;;12.88;61.95;102734.75;5061506;28;20036;-76
2022/03/26 19:04:55;;;;;;;8.93;5.07;;;;;;;12.77;62.65;102739.72;5056864;28;20044;-75
2022/03/26 19:07:22;;;;;;;12.77;5.10;;;;;;;12.66;62.88;102745.72;5058929;28;20048;-75
2022/03/26 19:09:49;;;;;;;10.43;5.68;;;;;;;12.64;62.20;102747.56;5054495;28;20347;-75
2022/03/26 19:12:16;;;;;;;11.90;5.35;;;;;;;12.62;64.41;102744.16;5061329;28;20052;-74
2022/03/26 19:14:43;;;;;;;7.95;4.93;;;;;;;12.56;65.09;102755.06;5071384;28;20037;-74
2022/03/26 19:17:11;;;;;;;9.60;5.47;;;;;;;12.48;63.47;102741.47;5067866;28;20040;-75
2022/03/26 19:19:37;;;;;;;11.07;5.45;;;;;;;12.51;65.34;102754.47;5064251;28;20075;-74
2022/03/26 19:22:04;;;;;;;12.07;5.57;;;;;;;12.49;63.31;102749.28;5064135;28;20115;-75
2022/03/26 19:24:31;;;;;;;8.23;4.90;;;;;;;12.41;65.76;102755.91;5064257;28;20616;-73
2022/03/26 19:26:59;;;;;;;11.00;5.68;;;;;;;12.35;65.71;102758.91;5058837;28;20055;-74
2022/03/26 19:29:40;;;;;;;10.25;5.15;;;;;;;12.28;67.75;102760.13;5066493;28;20040;-75
2022/03/26 19:32:12;;;;;;;9.85;4.72;;;;;;;12.25;67.67;102762.97;5082704;28;20075;-74
2022/03/26 19:34:39;;;;;;;11.07;5.47;;;;;;;12.23;68.05;102763.03;5078768;28;20051;-73
2022/03/26 19:37:05;;;;;;;8.65;5.55;;;;;;;12.16;66.65;102763.44;5073300;28;20041;-75
2022/03/26 19:39:32;;;;;;;11.15;4.93;;;;;;;12.13;65.16;102761.84;5073332;28;20362;-74
2022/03/26 19:41:58;;;;;;;17.15;5.25;;;;;;;12.18;66.70;102767.69;5066655;28;20046;-74
2022/03/26 19:44:26;;;;;;;9.73;5.43;;;;;;;12.15;66.23;102769.66;5064866;28;20044;-75
2022/03/26 19:46:52;;;;;;;9.98;5.55;;;;;;;12.06;66.43;102767.50;5060284;28;20059;-76
2022/03/26 19:49:20;;;;;;;8.07;6.03;;;;;;;11.98;67.45;102769.69;5061147;28;20067;-75
2022/03/26 19:51:47;;;;;;;12.90;6.30;;;;;;;11.96;67.15;102770.72;5062409;28;20453;-74
2022/03/26 19:54:14;;;;;;;10.10;5.68;;;;;;;11.89;67.43;102783.34;5057512;28;20041;-74
2022/03/26 19:56:41;;;;;;;10.55;6.18;;;;;;;11.79;68.00;102773.38;5083805;28;20040;-75
2022/03/26 19:59:08;;;;;;;9.30;5.45;;;;;;;11.74;67.07;102778.88;5060755;28;20045;-76
2022/03/26 20:01:35;;;;;;;11.80;6.25;;;;;;;11.72;67.81;102783.38;5054173;28;20040;-75
2022/03/26 20:04:02;;;;;;;10.00;5.22;;;;;;;11.71;67.23;102780.81;5061599;28;20041;-75
2022/03/26 20:06:30;;;;;;;9.70;5.72;;;;;;;11.62;67.09;102782.13;5056100;28;20052;-75
2022/03/26 20:08:57;;;;;;;9.05;5.22;;;;;;;11.52;69.27;102786.19;5060795;28;20041;-75
2022/03/26 20:11:24;;;;;;;12.40;6.28;;;;;;;11.48;68.40;102796.91;5058686;28;20055;-75
2022/03/26 20:13:54;;;;;;;9.88;6.13;;;;;;;11.46;70.70;102794.34;5054125;28;20131;-75
2022/03/26 20:19:05;;;;;;;10.07;5.75;;;;;;;11.42;68.85;102797.19;5051638;28;20068;-75
2022/03/26 20:21:33;;;;;;;11.23;5.47;;;;;;;11.50;69.82;102795.91;5055962;28;20067;-74
2022/03/26 20:23:59;;;;;;;9.73;5.35;;;;;;;11.51;70.37;102791.47;5061892;28;20063;-75
2022/03/26 20:26:26;;;;;;;12.38;6.38;;;;;;;11.56;69.48;102792.97;5057982;28;20047;-74
2022/03/26 20:28:53;;;;;;;14.35;6.65;;;;;;;11.59;68.86;102795.47;5055972;28;20072;-76
2022/03/26 20:31:20;;;;;;;10.25;5.63;;;;;;;11.64;69.92;102806.59;5059812;28;20068;-75
2022/03/26 20:33:46;;;;;;;26.25;5.25;;;;;;;11.60;71.88;102796.31;5055482;28;20056;-75
2022/03/26 20:36:13;;;;;;;11.20;5.82;;;;;;;11.53;69.98;102802.81;5060173;28;20055;-76
2022/03/26 20:38:41;;;;;;;8.68;5.13;;;;;;;11.49;71.68;102809.97;5059221;28;20041;-75
2022/03/26 20:41:08;;;;;;;8.65;4.97;;;;;;;11.50;73.14;102809.06;5057595;28;20071;-74
2022/03/26 20:43:35;;;;;;;7.82;5.00;;;;;;;11.56;71.74;102816.66;5053048;28;20068;-75
2022/03/26 20:46:02;;;;;;;12.90;5.35;;;;;;;11.59;71.56;102816.53;5057763;28;20055;-74
2022/03/26 20:48:28;;;;;;;13.35;6.43;;;;;;;11.51;71.44;102816.03;5050479;28;20037;-74
